Brook Cove, North Carolina
Current Conditions -  °F | °C
As of 9:01 AM on Sunday 23 Nov 2014 (Local Time) from KINT Reporting Station
Overcast Overcast  
Wind Chill: 45°   Ceiling: 1100
Heat Index: 45°   Visibility: 10mi
Dew Point: 24°   Wind: 0mph
Humidity: 44%   Direction: NA
Pressure: 30.21"   Gusts: NA
Location:  36.3289°N, 80.1453°W
Report Text: KINT 231401Z 00000KT 10SM BKN011 OVC022 07/M04 A3021 RMK AO2 T00721044
Loading
Personal Weather Stations






























Interactive Weather Map New forecast layout! Learn more

10-Day Weather Forecast

Advertisements
Track Severe Weather on mobile